Time;durP1;ratioP1;P1;durP2;ratioP2;P2;SDS_P1;SDS_P2;PMS_P1;PMS_P2;Temp;Humidity;BMP_temperature;BMP_pressure;BME280_temperature;BME280_humidity;BME280_pressure;Samples;Min_cycle;Max_cycle;Signal;HPM_P1;HPM_P2
2022/08/29 00:01:39;;;;;;;;;;;18.10;97.90;;;;;;5076111;28;19963;-67
2022/08/29 00:04:05;;;;;;;;;;;18.00;98.60;;;;;;5081545;28;19915;-67
2022/08/29 00:06:31;;;;;;;;;;;18.00;98.60;;;;;;5076511;28;19938;-66
2022/08/29 00:08:56;;;;;;;;;;;18.00;99.20;;;;;;5081644;28;19913;-67
2022/08/29 00:11:22;;;;;;;;;;;18.00;99.20;;;;;;5078831;28;19904;-67
2022/08/29 00:13:47;;;;;;;;;;;17.90;99.60;;;;;;5077834;28;19935;-67
2022/08/29 00:16:13;;;;;;;;;;;17.90;99.00;;;;;;5086614;28;19972;-67
2022/08/29 00:18:39;;;;;;;;;;;17.90;99.30;;;;;;5079192;28;19909;-67
2022/08/29 00:21:05;;;;;;;;;;;18.00;99.50;;;;;;5097908;28;19921;-66
2022/08/29 00:23:30;;;;;;;;;;;18.00;99.70;;;;;;5088184;28;19919;-67
2022/08/29 00:25:56;;;;;;;;;;;18.00;99.60;;;;;;5076041;28;19920;-67
2022/08/29 00:28:22;;;;;;;;;;;18.00;99.40;;;;;;5074453;28;19908;-67
2022/08/29 00:30:47;;;;;;;;;;;17.90;99.90;;;;;;5077854;28;19916;-67
2022/08/29 00:33:14;;;;;;;;;;;17.90;99.90;;;;;;5075485;28;20040;-67
2022/08/29 00:35:40;;;;;;;;;;;17.80;99.90;;;;;;5079923;28;20371;-67
2022/08/29 00:38:07;;;;;;;;;;;17.80;99.90;;;;;;5083287;28;19909;-67
2022/08/29 00:40:34;;;;;;;;;;;17.80;99.90;;;;;;5087529;28;19962;-67
2022/08/29 00:43:00;;;;;;;;;;;17.80;99.90;;;;;;5078815;28;19947;-67
2022/08/29 00:45:26;;;;;;;;;;;17.70;99.90;;;;;;5074538;28;19912;-67
2022/08/29 00:47:54;;;;;;;;;;;17.60;99.90;;;;;;5075161;28;19908;-67
2022/08/29 00:50:31;;;;;;;;;;;17.60;99.90;;;;;;5075004;28;19924;-66
2022/08/29 00:52:57;;;;;;;;;;;17.70;99.90;;;;;;5091118;28;19960;-66
2022/08/29 00:55:24;;;;;;;;;;;17.70;99.90;;;;;;5078683;28;19924;-67
2022/08/29 00:57:53;;;;;;;;;;;17.70;99.90;;;;;;5084304;28;19909;-67
2022/08/29 01:00:19;;;;;;;;;;;17.70;99.90;;;;;;5076331;28;19912;-67
2022/08/29 01:02:46;;;;;;;;;;;17.80;99.90;;;;;;5074230;28;19909;-66
2022/08/29 01:05:14;;;;;;;;;;;17.80;99.90;;;;;;5079628;28;19951;-67
2022/08/29 01:07:39;;;;;;;;;;;17.80;99.90;;;;;;5081519;28;19956;-67
2022/08/29 01:10:06;;;;;;;;;;;17.80;99.90;;;;;;5079209;28;19916;-65
2022/08/29 01:12:32;;;;;;;;;;;17.80;99.90;;;;;;5070445;28;19976;-67
2022/08/29 01:15:00;;;;;;;;;;;17.80;99.90;;;;;;5075234;28;19901;-67
2022/08/29 01:17:26;;;;;;;;;;;17.70;99.90;;;;;;5080633;28;19951;-66
2022/08/29 01:19:51;;;;;;;;;;;17.70;99.90;;;;;;5082783;28;19901;-67
2022/08/29 01:22:38;;;;;;;;;;;17.60;99.90;;;;;;5089942;28;19911;-67
2022/08/29 01:25:06;;;;;;;;;;;17.50;99.90;;;;;;5078987;28;19901;-67
2022/08/29 01:27:33;;;;;;;;;;;17.40;99.90;;;;;;5081242;28;19915;-67
2022/08/29 01:29:59;;;;;;;;;;;17.40;99.90;;;;;;5081598;28;19901;-67
2022/08/29 01:32:25;;;;;;;;;;;17.40;99.90;;;;;;5081048;28;19917;-67
2022/08/29 01:34:51;;;;;;;;;;;17.40;99.90;;;;;;5074853;28;19911;-67
2022/08/29 01:37:17;;;;;;;;;;;17.40;99.90;;;;;;5084996;28;19932;-67
2022/08/29 01:39:43;;;;;;;;;;;17.50;99.90;;;;;;5090851;28;19916;-67
2022/08/29 01:42:10;;;;;;;;;;;17.40;99.90;;;;;;5080076;28;19913;-66
2022/08/29 01:44:37;;;;;;;;;;;17.40;99.90;;;;;;5083378;28;19901;-66
2022/08/29 01:47:03;;;;;;;;;;;17.30;99.90;;;;;;5073980;28;19917;-67
2022/08/29 01:49:33;;;;;;;;;;;17.30;99.90;;;;;;5074815;28;19919;-66
2022/08/29 01:51:59;;;;;;;;;;;17.30;99.90;;;;;;5072744;28;19965;-67
2022/08/29 01:54:25;;;;;;;;;;;17.40;99.90;;;;;;5074123;28;19913;-67
2022/08/29 01:56:51;;;;;;;;;;;17.30;99.90;;;;;;5084144;28;19909;-67
2022/08/29 01:59:19;;;;;;;;;;;17.30;99.90;;;;;;5074165;28;19912;-67
2022/08/29 02:01:50;;;;;;;;;;;17.30;99.90;;;;;;5074702;28;20016;-67
2022/08/29 02:04:16;;;;;;;;;;;17.30;99.90;;;;;;5084206;28;19901;-66
2022/08/29 02:06:42;;;;;;;;;;;17.30;99.90;;;;;;5084536;28;19995;-66
2022/08/29 02:09:07;;;;;;;;;;;17.30;99.90;;;;;;5092760;28;19916;-67
2022/08/29 02:11:37;;;;;;;;;;;17.30;99.90;;;;;;5077263;28;19901;-67
2022/08/29 02:14:03;;;;;;;;;;;17.20;99.90;;;;;;5074146;28;19917;-67
2022/08/29 02:16:29;;;;;;;;;;;17.30;99.90;;;;;;5073499;28;19923;-67
2022/08/29 02:18:54;;;;;;;;;;;17.20;99.90;;;;;;5081508;28;19976;-67
2022/08/29 02:21:22;;;;;;;;;;;17.30;99.90;;;;;;5088349;28;19907;-67
2022/08/29 02:23:48;;;;;;;;;;;17.30;99.90;;;;;;5093192;28;19913;-67
2022/08/29 02:26:15;;;;;;;;;;;17.30;99.90;;;;;;5081653;28;19927;-67
2022/08/29 02:28:40;;;;;;;;;;;17.30;99.90;;;;;;5076429;28;19944;-67
2022/08/29 02:31:07;;;;;;;;;;;17.30;99.90;;;;;;5076088;28;19920;-67
2022/08/29 02:33:34;;;;;;;;;;;17.30;99.90;;;;;;5088724;28;19901;-67
2022/08/29 02:36:00;;;;;;;;;;;17.40;99.90;;;;;;5080198;28;19928;-67
2022/08/29 02:38:27;;;;;;;;;;;17.30;99.90;;;;;;5073728;28;19931;-66
2022/08/29 02:40:52;;;;;;;;;;;17.30;99.90;;;;;;5089157;28;19912;-67
2022/08/29 02:43:18;;;;;;;;;;;17.30;99.90;;;;;;5077721;28;19912;-67
2022/08/29 02:45:44;;;;;;;;;;;17.30;99.90;;;;;;5090564;28;19913;-67
2022/08/29 02:48:11;;;;;;;;;;;17.30;99.90;;;;;;5074150;28;19912;-66
2022/08/29 02:50:40;;;;;;;;;;;17.30;99.90;;;;;;5075466;28;19908;-66
2022/08/29 02:53:06;;;;;;;;;;;17.20;99.90;;;;;;5073910;28;19932;-67
2022/08/29 02:55:32;;;;;;;;;;;17.30;99.90;;;;;;5103842;28;19936;-66
2022/08/29 02:57:57;;;;;;;;;;;17.30;99.90;;;;;;5077835;28;19913;-67
2022/08/29 03:00:24;;;;;;;;;;;17.30;99.90;;;;;;5074066;28;19931;-67
2022/08/29 03:02:50;;;;;;;;;;;17.20;99.90;;;;;;5084909;28;19911;-67
2022/08/29 03:05:18;;;;;;;;;;;17.10;99.90;;;;;;5075948;28;19939;-67
2022/08/29 03:07:44;;;;;;;;;;;17.10;99.90;;;;;;5077670;28;19900;-67
2022/08/29 03:10:10;;;;;;;;;;;17.10;99.90;;;;;;5073671;28;19913;-67
2022/08/29 03:12:36;;;;;;;;;;;17.10;99.90;;;;;;5076756;28;19928;-67
2022/08/29 03:15:03;;;;;;;;;;;17.00;99.90;;;;;;5078038;28;19913;-66
2022/08/29 03:17:28;;;;;;;;;;;17.00;99.90;;;;;;5082386;28;19968;-67
2022/08/29 03:19:54;;;;;;;;;;;17.00;99.90;;;;;;5084903;28;19901;-66
2022/08/29 03:22:19;;;;;;;;;;;17.10;99.90;;;;;;5078568;28;19913;-66
2022/08/29 03:24:45;;;;;;;;;;;17.00;99.90;;;;;;5080794;28;19927;-67
2022/08/29 03:27:11;;;;;;;;;;;17.10;99.90;;;;;;5092015;28;19913;-67
2022/08/29 03:29:37;;;;;;;;;;;17.20;99.90;;;;;;5079127;28;19909;-67
2022/08/29 03:32:03;;;;;;;;;;;17.10;99.90;;;;;;5081572;28;19980;-67
2022/08/29 03:34:29;;;;;;;;;;;17.10;99.90;;;;;;5085876;28;19909;-67
2022/08/29 03:36:55;;;;;;;;;;;17.10;99.90;;;;;;5090408;28;19930;-66
2022/08/29 03:39:21;;;;;;;;;;;17.10;99.90;;;;;;5079423;28;19919;-67
2022/08/29 03:41:46;;;;;;;;;;;17.00;99.90;;;;;;5083471;28;19901;-66
2022/08/29 03:44:13;;;;;;;;;;;16.90;99.90;;;;;;5094572;28;19913;-67
2022/08/29 03:46:38;;;;;;;;;;;16.80;99.90;;;;;;5078003;28;19913;-67
2022/08/29 03:49:06;;;;;;;;;;;16.80;99.90;;;;;;5078622;28;19908;-67
2022/08/29 03:51:33;;;;;;;;;;;16.80;99.90;;;;;;5091505;28;19919;-67
2022/08/29 03:53:58;;;;;;;;;;;16.80;99.90;;;;;;5080591;28;19983;-68
2022/08/29 03:56:24;;;;;;;;;;;16.80;99.90;;;;;;5084940;28;19912;-67
2022/08/29 03:58:50;;;;;;;;;;;16.80;99.90;;;;;;5079575;28;19901;-67
2022/08/29 04:01:17;;;;;;;;;;;16.70;99.90;;;;;;5075212;28;19919;-66
2022/08/29 04:03:43;;;;;;;;;;;16.70;99.90;;;;;;5081478;28;19912;-67
2022/08/29 04:06:08;;;;;;;;;;;16.70;99.90;;;;;;5078074;28;19924;-68
2022/08/29 04:08:34;;;;;;;;;;;16.70;99.90;;;;;;5082848;28;19972;-67
2022/08/29 04:10:59;;;;;;;;;;;16.60;99.90;;;;;;5078890;28;19905;-66
2022/08/29 04:13:25;;;;;;;;;;;16.50;99.90;;;;;;5081514;28;19925;-67
2022/08/29 04:15:52;;;;;;;;;;;16.50;99.90;;;;;;5086103;28;19913;-67
2022/08/29 04:18:17;;;;;;;;;;;16.40;99.90;;;;;;5084558;28;19916;-67
2022/08/29 04:20:43;;;;;;;;;;;16.40;99.90;;;;;;5079190;28;19927;-67
2022/08/29 04:23:11;;;;;;;;;;;16.40;99.90;;;;;;5076423;28;19913;-67
2022/08/29 04:25:37;;;;;;;;;;;16.30;99.90;;;;;;5076971;28;19896;-67
2022/08/29 04:28:04;;;;;;;;;;;16.30;99.90;;;;;;5086838;28;19967;-66
2022/08/29 04:30:30;;;;;;;;;;;16.20;99.90;;;;;;5090481;28;19913;-67
2022/08/29 04:32:55;;;;;;;;;;;16.10;99.90;;;;;;5079948;28;19921;-67
2022/08/29 04:35:21;;;;;;;;;;;16.10;99.90;;;;;;5077228;28;19901;-67
2022/08/29 04:37:48;;;;;;;;;;;16.10;99.90;;;;;;5079570;28;19913;-67
2022/08/29 04:40:15;;;;;;;;;;;16.00;99.90;;;;;;5097418;28;19919;-67
2022/08/29 04:42:41;;;;;;;;;;;15.90;99.90;;;;;;5080416;28;19908;-66
2022/08/29 04:45:08;;;;;;;;;;;15.90;99.90;;;;;;5080681;28;19950;-67
2022/08/29 04:47:34;;;;;;;;;;;15.90;99.90;;;;;;5076848;28;20035;-66
2022/08/29 04:50:00;;;;;;;;;;;15.90;99.90;;;;;;5090140;28;19968;-66
2022/08/29 04:52:26;;;;;;;;;;;15.80;99.90;;;;;;5094936;28;19932;-67
2022/08/29 04:54:52;;;;;;;;;;;15.70;99.90;;;;;;5083397;28;19912;-68
2022/08/29 04:57:17;;;;;;;;;;;15.70;99.90;;;;;;5083645;28;19917;-67
2022/08/29 04:59:43;;;;;;;;;;;15.70;99.90;;;;;;5082700;28;19912;-67
2022/08/29 05:02:08;;;;;;;;;;;15.60;99.90;;;;;;5086608;28;19964;-67
2022/08/29 05:04:34;;;;;;;;;;;15.60;99.90;;;;;;5076838;28;19909;-67
2022/08/29 05:06:59;;;;;;;;;;;15.60;99.90;;;;;;5083956;28;19901;-69
2022/08/29 05:09:25;;;;;;;;;;;15.60;99.90;;;;;;5088381;28;19917;-67
2022/08/29 05:11:51;;;;;;;;;;;15.60;99.90;;;;;;5076511;28;19919;-67
2022/08/29 05:14:16;;;;;;;;;;;15.60;99.90;;;;;;5083729;28;19948;-67
2022/08/29 05:16:42;;;;;;;;;;;15.60;99.90;;;;;;5082545;28;19920;-67
2022/08/29 05:19:07;;;;;;;;;;;15.60;99.90;;;;;;5082893;28;19908;-67
2022/08/29 05:21:35;;;;;;;;;;;15.70;99.90;;;;;;5093157;28;19951;-67
2022/08/29 05:24:05;;;;;;;;;;;15.80;99.90;;;;;;5082743;28;19977;-66
2022/08/29 05:26:32;;;;;;;;;;;15.70;99.90;;;;;;5085945;28;19901;-66
2022/08/29 05:28:58;;;;;;;;;;;15.70;99.90;;;;;;5075707;28;19913;-67
2022/08/29 05:31:24;;;;;;;;;;;15.70;99.90;;;;;;5081599;28;19939;-67
2022/08/29 05:33:50;;;;;;;;;;;15.70;99.90;;;;;;5083309;28;19921;-66
2022/08/29 05:36:16;;;;;;;;;;;15.50;99.90;;;;;;5081906;28;19900;-67
2022/08/29 05:38:41;;;;;;;;;;;15.50;99.90;;;;;;5085517;28;19909;-67
2022/08/29 05:41:07;;;;;;;;;;;15.60;99.90;;;;;;5075926;28;19897;-67
2022/08/29 05:43:33;;;;;;;;;;;15.50;99.90;;;;;;5078392;28;19943;-66
2022/08/29 05:46:00;;;;;;;;;;;15.50;99.90;;;;;;5074652;28;19988;-67
2022/08/29 05:48:26;;;;;;;;;;;15.40;99.90;;;;;;5076248;28;19924;-66
2022/08/29 05:50:51;;;;;;;;;;;15.30;99.90;;;;;;5078071;28;19984;-66
2022/08/29 05:53:18;;;;;;;;;;;15.30;99.90;;;;;;5081126;28;19928;-67
2022/08/29 05:55:43;;;;;;;;;;;15.30;99.90;;;;;;5080252;28;19912;-66
2022/08/29 05:58:10;;;;;;;;;;;15.30;99.90;;;;;;5082186;28;19996;-66
2022/08/29 06:00:42;;;;;;;;;;;15.40;99.90;;;;;;5072822;28;19909;-68
2022/08/29 06:03:08;;;;;;;;;;;15.40;99.90;;;;;;5075750;28;19901;-67
2022/08/29 06:05:34;;;;;;;;;;;15.30;99.90;;;;;;5083472;28;19905;-67
2022/08/29 06:08:00;;;;;;;;;;;15.30;99.90;;;;;;5076812;28;19918;-66
2022/08/29 06:10:26;;;;;;;;;;;15.30;99.90;;;;;;5079134;28;19931;-67
2022/08/29 06:12:51;;;;;;;;;;;15.20;99.90;;;;;;5075478;28;19928;-66
2022/08/29 06:15:17;;;;;;;;;;;15.10;99.90;;;;;;5080303;28;20286;-67
2022/08/29 06:17:42;;;;;;;;;;;15.10;99.90;;;;;;5076284;28;19916;-67
2022/08/29 06:20:08;;;;;;;;;;;15.10;99.90;;;;;;5075420;28;19962;-67
2022/08/29 06:22:34;;;;;;;;;;;15.10;99.90;;;;;;5096756;28;19928;-67
2022/08/29 06:25:00;;;;;;;;;;;15.10;99.90;;;;;;5100425;28;19917;-67
2022/08/29 06:27:26;;;;;;;;;;;15.20;99.90;;;;;;5103120;28;19917;-68
2022/08/29 06:29:51;;;;;;;;;;;15.30;99.90;;;;;;5082076;28;19920;-66
2022/08/29 06:32:17;;;;;;;;;;;15.40;99.90;;;;;;5072924;28;20030;-66
2022/08/29 06:34:42;;;;;;;;;;;15.50;99.90;;;;;;5075567;28;19913;-67
2022/08/29 06:37:08;;;;;;;;;;;15.50;99.90;;;;;;5075132;28;19965;-67
2022/08/29 06:39:34;;;;;;;;;;;15.50;99.90;;;;;;5083675;28;19912;-67
2022/08/29 06:41:59;;;;;;;;;;;15.50;99.90;;;;;;5082586;28;19968;-68
2022/08/29 06:44:25;;;;;;;;;;;15.60;99.90;;;;;;5090850;28;20016;-66
2022/08/29 06:46:51;;;;;;;;;;;15.70;99.90;;;;;;5078325;28;19912;-67
2022/08/29 06:49:17;;;;;;;;;;;15.80;99.90;;;;;;5082531;28;19918;-67
2022/08/29 06:51:47;;;;;;;;;;;15.80;99.90;;;;;;5078908;28;19919;-67
2022/08/29 06:54:13;;;;;;;;;;;16.00;99.90;;;;;;5081961;28;20006;-67
2022/08/29 06:56:39;;;;;;;;;;;16.20;99.90;;;;;;5075609;28;19931;-67
2022/08/29 06:59:05;;;;;;;;;;;16.30;99.90;;;;;;5078725;28;19909;-67
2022/08/29 07:01:31;;;;;;;;;;;16.40;99.90;;;;;;5081242;28;19915;-67
2022/08/29 07:03:57;;;;;;;;;;;16.50;99.90;;;;;;5080161;28;19964;-67
2022/08/29 07:06:23;;;;;;;;;;;16.70;99.90;;;;;;5073907;28;19915;-67
2022/08/29 07:08:48;;;;;;;;;;;16.80;99.90;;;;;;5074177;28;19964;-67
2022/08/29 07:11:14;;;;;;;;;;;16.90;99.90;;;;;;5073631;28;20276;-66
2022/08/29 07:13:40;;;;;;;;;;;17.00;99.90;;;;;;5072630;28;20275;-67
2022/08/29 07:16:10;;;;;;;;;;;17.10;99.90;;;;;;5080229;28;19908;-67
2022/08/29 07:18:35;;;;;;;;;;;17.20;99.90;;;;;;5082834;28;19935;-67
2022/08/29 07:21:05;;;;;;;;;;;17.30;99.90;;;;;;5071232;28;19913;-67
2022/08/29 07:23:31;;;;;;;;;;;17.40;99.90;;;;;;5091356;28;19916;-67
2022/08/29 07:26:05;;;;;;;;;;;17.40;99.90;;;;;;5070490;28;19912;-67
2022/08/29 07:28:33;;;;;;;;;;;17.40;99.90;;;;;;5094803;28;19916;-67
2022/08/29 07:30:59;;;;;;;;;;;17.40;99.90;;;;;;5065089;28;19970;-67
2022/08/29 07:33:24;;;;;;;;;;;17.50;99.90;;;;;;5073920;28;19917;-67
2022/08/29 07:35:51;;;;;;;;;;;17.60;99.90;;;;;;5080080;28;20241;-68
2022/08/29 07:38:16;;;;;;;;;;;17.80;99.90;;;;;;5073116;28;19909;-67
2022/08/29 07:40:42;;;;;;;;;;;17.90;99.90;;;;;;5076798;28;19923;-67
2022/08/29 07:43:07;;;;;;;;;;;18.00;99.90;;;;;;5071326;28;19944;-66
2022/08/29 07:45:33;;;;;;;;;;;17.90;99.90;;;;;;5068459;28;19913;-67
2022/08/29 07:47:58;;;;;;;;;;;17.70;99.90;;;;;;5093342;28;19946;-67
2022/08/29 07:50:24;;;;;;;;;;;17.70;99.90;;;;;;5091674;28;19940;-67
2022/08/29 07:52:51;;;;;;;;;;;17.70;99.90;;;;;;5101465;28;19921;-68
2022/08/29 07:55:16;;;;;;;;;;;17.70;99.90;;;;;;5075561;28;19917;-67
2022/08/29 07:57:45;;;;;;;;;;;17.80;99.90;;;;;;5078394;28;19919;-67
2022/08/29 08:00:11;;;;;;;;;;;18.00;99.90;;;;;;5074694;28;20003;-67
2022/08/29 08:02:36;;;;;;;;;;;18.30;99.90;;;;;;5093201;28;19913;-68
2022/08/29 08:05:02;;;;;;;;;;;18.40;99.90;;;;;;5071035;28;19956;-67
2022/08/29 08:07:28;;;;;;;;;;;18.30;99.90;;;;;;5073734;28;19912;-67
2022/08/29 08:09:54;;;;;;;;;;;18.20;99.90;;;;;;5077097;28;19913;-67
2022/08/29 08:12:19;;;;;;;;;;;18.20;99.90;;;;;;5080870;28;19928;-68
2022/08/29 08:14:46;;;;;;;;;;;18.30;99.90;;;;;;5073448;28;19920;-67
2022/08/29 08:17:11;;;;;;;;;;;18.40;99.90;;;;;;5076045;28;20272;-68
2022/08/29 08:19:37;;;;;;;;;;;18.50;99.90;;;;;;5079003;28;20007;-68
2022/08/29 08:22:02;;;;;;;;;;;18.70;99.90;;;;;;5080001;28;20026;-68
2022/08/29 08:24:28;;;;;;;;;;;18.90;99.90;;;;;;5075033;28;19913;-67
2022/08/29 08:26:53;;;;;;;;;;;19.00;99.90;;;;;;5070588;28;19919;-69
2022/08/29 08:29:19;;;;;;;;;;;18.90;99.90;;;;;;5067193;28;19937;-68
2022/08/29 08:31:46;;;;;;;;;;;18.90;99.90;;;;;;5080249;28;19932;-68
2022/08/29 08:34:14;;;;;;;;;;;19.00;99.90;;;;;;5078283;28;19919;-67
2022/08/29 08:36:41;;;;;;;;;;;19.10;99.90;;;;;;5075649;28;19913;-68
2022/08/29 08:39:08;;;;;;;;;;;19.20;99.90;;;;;;5070344;28;19999;-68
2022/08/29 08:41:52;;;;;;;;;;;19.40;99.90;;;;;;5071552;28;20291;-68
2022/08/29 08:44:20;;;;;;;;;;;19.60;99.90;;;;;;5078859;28;20001;-68
2022/08/29 08:46:48;;;;;;;;;;;19.60;99.90;;;;;;5075502;28;19912;-67
2022/08/29 08:49:16;;;;;;;;;;;19.60;99.90;;;;;;5072770;28;19943;-67
2022/08/29 08:51:44;;;;;;;;;;;19.80;99.90;;;;;;5069655;28;19969;-68
2022/08/29 08:54:16;;;;;;;;;;;20.00;99.90;;;;;;5063037;28;19942;-67
2022/08/29 08:56:46;;;;;;;;;;;19.90;99.90;;;;;;5067519;28;19920;-68
2022/08/29 08:59:15;;;;;;;;;;;19.90;99.90;;;;;;5069953;28;19913;-67
2022/08/29 09:01:42;;;;;;;;;;;20.10;99.90;;;;;;5072648;28;19972;-67
2022/08/29 09:04:11;;;;;;;;;;;20.20;99.90;;;;;;5080243;28;19936;-67
2022/08/29 09:06:47;;;;;;;;;;;20.40;99.90;;;;;;5081614;28;19925;-68
2022/08/29 09:09:12;;;;;;;;;;;20.70;99.90;;;;;;5078600;28;19979;-67
2022/08/29 09:11:42;;;;;;;;;;;20.90;99.90;;;;;;5078147;28;19984;-67
2022/08/29 09:14:46;;;;;;;;;;;20.90;99.90;;;;;;5074042;28;19921;-68
2022/08/29 09:17:18;;;;;;;;;;;21.10;99.90;;;;;;5007114;28;19973;-68
2022/08/29 09:19:45;;;;;;;;;;;21.00;99.90;;;;;;4995342;28;19918;-68
2022/08/29 09:22:14;;;;;;;;;;;21.00;99.90;;;;;;5051190;28;20007;-68
2022/08/29 09:24:39;;;;;;;;;;;21.10;99.90;;;;;;5080580;28;19924;-67
2022/08/29 09:27:05;;;;;;;;;;;21.00;99.90;;;;;;5084962;28;19912;-67
2022/08/29 09:29:31;;;;;;;;;;;20.80;99.90;;;;;;5075705;28;19943;-67
2022/08/29 09:32:10;;;;;;;;;;;20.80;99.90;;;;;;5074027;28;19913;-67
2022/08/29 09:34:38;;;;;;;;;;;20.80;99.90;;;;;;5095388;28;19908;-67
2022/08/29 09:37:14;;;;;;;;;;;20.60;99.90;;;;;;5071743;28;19913;-69
2022/08/29 09:39:50;;;;;;;;;;;20.60;99.90;;;;;;5083201;28;19909;-67
2022/08/29 09:42:18;;;;;;;;;;;20.70;99.90;;;;;;5083296;28;19920;-68
2022/08/29 09:44:51;;;;;;;;;;;20.90;99.90;;;;;;5074646;28;19909;-67
2022/08/29 09:47:22;;;;;;;;;;;20.80;99.90;;;;;;5077983;28;19988;-68
2022/08/29 09:50:00;;;;;;;;;;;20.70;99.90;;;;;;5083788;28;19913;-68
2022/08/29 09:52:26;;;;;;;;;;;20.80;99.90;;;;;;5070369;28;20001;-68
2022/08/29 09:54:54;;;;;;;;;;;20.90;98.90;;;;;;5066653;28;19913;-68
2022/08/29 09:57:27;;;;;;;;;;;20.90;98.40;;;;;;5067729;28;19940;-67
2022/08/29 10:00:05;;;;;;;;;;;20.80;98.00;;;;;;5065738;28;19934;-68
2022/08/29 10:02:35;;;;;;;;;;;20.80;98.80;;;;;;5073032;28;19914;-69
2022/08/29 10:05:04;;;;;;;;;;;20.80;97.20;;;;;;5070833;28;19912;-68
2022/08/29 10:07:32;;;;;;;;;;;20.80;96.30;;;;;;5087163;28;19909;-68
2022/08/29 10:10:03;;;;;;;;;;;20.70;96.00;;;;;;5061728;28;19913;-69
2022/08/29 10:12:48;;;;;;;;;;;20.70;95.00;;;;;;5061457;28;19943;-68
2022/08/29 10:15:25;;;;;;;;;;;20.70;92.50;;;;;;5062777;28;19917;-67
2022/08/29 10:18:19;;;;;;;;;;;20.60;92.80;;;;;;5074492;28;19996;-68
2022/08/29 10:20:45;;;;;;;;;;;20.80;92.30;;;;;;5064224;28;19913;-67
2022/08/29 10:23:19;;;;;;;;;;;21.00;91.90;;;;;;5062737;28;20390;-67
2022/08/29 10:25:45;;;;;;;;;;;21.00;90.90;;;;;;5071857;28;19912;-68
2022/08/29 10:28:23;;;;;;;;;;;21.10;90.50;;;;;;5065190;28;19913;-68
2022/08/29 10:30:49;;;;;;;;;;;21.30;88.80;;;;;;5087641;28;20262;-69
2022/08/29 10:33:20;;;;;;;;;;;21.40;88.90;;;;;;5066941;28;19931;-67
2022/08/29 10:35:52;;;;;;;;;;;21.30;88.70;;;;;;5072246;28;19924;-68
2022/08/29 10:38:27;;;;;;;;;;;21.20;85.50;;;;;;5076962;28;19909;-68
2022/08/29 10:41:11;;;;;;;;;;;21.30;82.80;;;;;;5065964;28;20228;-68
2022/08/29 10:44:06;;;;;;;;;;;21.30;82.90;;;;;;5058979;28;19913;-68
2022/08/29 10:46:32;;;;;;;;;;;21.50;82.40;;;;;;5031088;28;20376;-68
2022/08/29 10:49:07;;;;;;;;;;;21.90;79.30;;;;;;5073907;28;19927;-68
2022/08/29 10:51:51;;;;;;;;;;;22.00;79.00;;;;;;5066426;28;19944;-67
2022/08/29 10:54:29;;;;;;;;;;;22.20;76.00;;;;;;5081210;28;19921;-68
2022/08/29 10:56:54;;;;;;;;;;;22.40;76.60;;;;;;5063325;28;19900;-68
2022/08/29 10:59:20;;;;;;;;;;;22.50;72.90;;;;;;5073483;28;19967;-68
2022/08/29 11:01:59;;;;;;;;;;;22.70;74.60;;;;;;5093733;28;19912;-67
2022/08/29 11:04:40;;;;;;;;;;;22.90;70.70;;;;;;5069572;28;19912;-68
2022/08/29 11:07:15;;;;;;;;;;;23.00;71.70;;;;;;5065743;28;19923;-68
2022/08/29 11:09:58;;;;;;;;;;;23.20;68.00;;;;;;5067471;28;19984;-68
2022/08/29 11:12:32;;;;;;;;;;;23.20;67.60;;;;;;5069049;28;19972;-68
2022/08/29 11:15:07;;;;;;;;;;;23.20;66.70;;;;;;5066723;28;19988;-67
2022/08/29 11:17:34;;;;;;;;;;;23.20;65.10;;;;;;5070504;28;19948;-68
2022/08/29 11:20:00;;;;;;;;;;;23.10;63.40;;;;;;5076541;28;19909;-67
2022/08/29 11:23:01;;;;;;;;;;;22.90;63.20;;;;;;5082276;28;19913;-68
2022/08/29 11:25:28;;;;;;;;;;;22.80;65.30;;;;;;5003164;28;19917;-67
2022/08/29 11:28:12;;;;;;;;;;;22.70;64.90;;;;;;5065184;28;19913;-68
2022/08/29 11:30:41;;;;;;;;;;;22.80;67.20;;;;;;5061013;28;19959;-68
2022/08/29 11:33:42;;;;;;;;;;;22.90;67.50;;;;;;5092898;28;19924;-67
2022/08/29 11:36:36;;;;;;;;;;;23.10;67.10;;;;;;5004362;28;19933;-67
2022/08/29 11:39:28;;;;;;;;;;;23.30;64.90;;;;;;5012366;28;19917;-68
2022/08/29 11:41:55;;;;;;;;;;;23.60;63.60;;;;;;5071608;28;19988;-67
2022/08/29 11:44:29;;;;;;;;;;;23.70;62.30;;;;;;5073875;28;20475;-67
2022/08/29 11:46:55;;;;;;;;;;;23.50;60.40;;;;;;5077853;28;19917;-68
2022/08/29 11:49:30;;;;;;;;;;;23.30;60.80;;;;;;5080055;28;19927;-67
2022/08/29 11:52:09;;;;;;;;;;;23.10;60.70;;;;;;5071738;28;19913;-67
2022/08/29 11:54:35;;;;;;;;;;;23.00;61.80;;;;;;5074861;28;19963;-68
2022/08/29 11:57:01;;;;;;;;;;;23.00;62.40;;;;;;5075605;28;19996;-68
2022/08/29 11:59:49;;;;;;;;;;;23.10;59.00;;;;;;5087309;28;19909;-67
2022/08/29 12:02:30;;;;;;;;;;;22.90;59.30;;;;;;5075515;28;19897;-67
2022/08/29 12:05:00;;;;;;;;;;;23.00;60.80;;;;;;5072898;28;19947;-68
2022/08/29 12:07:35;;;;;;;;;;;23.10;57.90;;;;;;5079043;28;19936;-68
2022/08/29 12:10:02;;;;;;;;;;;23.00;58.20;;;;;;5083521;28;19913;-67
2022/08/29 12:12:42;;;;;;;;;;;23.00;58.70;;;;;;5087686;28;19943;-67
2022/08/29 12:15:28;;;;;;;;;;;23.10;59.50;;;;;;5076251;28;19959;-67
2022/08/29 12:17:56;;;;;;;;;;;23.30;57.70;;;;;;5078362;28;19913;-67
2022/08/29 12:20:35;;;;;;;;;;;23.30;59.60;;;;;;5071361;28;19972;-68
2022/08/29 12:23:00;;;;;;;;;;;23.30;61.10;;;;;;5092494;28;19935;-68
2022/08/29 12:25:26;;;;;;;;;;;23.30;57.00;;;;;;5078199;28;19913;-68
2022/08/29 12:28:11;;;;;;;;;;;23.20;59.00;;;;;;5074051;28;19954;-68
2022/08/29 12:30:38;;;;;;;;;;;23.10;59.60;;;;;;5075354;28;19971;-67
2022/08/29 12:33:12;;;;;;;;;;;22.80;59.10;;;;;;5070460;28;19916;-67
2022/08/29 12:35:38;;;;;;;;;;;22.80;59.20;;;;;;5077212;28;19974;-67
2022/08/29 12:38:10;;;;;;;;;;;22.70;60.50;;;;;;5083188;28;19970;-68
2022/08/29 12:40:41;;;;;;;;;;;22.90;60.80;;;;;;5084357;28;19901;-68
2022/08/29 12:43:10;;;;;;;;;;;23.10;62.20;;;;;;5079259;28;19955;-67
2022/08/29 12:45:37;;;;;;;;;;;23.20;57.40;;;;;;5081793;28;19924;-68
2022/08/29 12:48:08;;;;;;;;;;;23.20;56.40;;;;;;5072012;28;19948;-67
2022/08/29 12:50:35;;;;;;;;;;;23.00;56.70;;;;;;5071432;28;19935;-68
2022/08/29 12:53:01;;;;;;;;;;;22.80;58.00;;;;;;5074134;28;19932;-68
2022/08/29 12:55:31;;;;;;;;;;;22.70;58.80;;;;;;5076987;28;19913;-67
2022/08/29 12:57:57;;;;;;;;;;;22.90;58.80;;;;;;5073566;28;19916;-68
2022/08/29 13:00:24;;;;;;;;;;;22.90;58.20;;;;;;5075823;28;19920;-67
2022/08/29 13:03:15;;;;;;;;;;;22.80;58.80;;;;;;5072009;28;19909;-67
2022/08/29 13:05:41;;;;;;;;;;;23.00;57.80;;;;;;5076346;28;19913;-67
2022/08/29 13:08:12;;;;;;;;;;;23.10;58.50;;;;;;5073566;28;19912;-67
2022/08/29 13:10:40;;;;;;;;;;;23.40;57.80;;;;;;5072293;28;19978;-67
2022/08/29 13:13:06;;;;;;;;;;;23.70;55.30;;;;;;5074428;28;19958;-67
2022/08/29 13:15:32;;;;;;;;;;;23.80;54.00;;;;;;5075562;28;19912;-67
2022/08/29 13:17:58;;;;;;;;;;;23.80;53.10;;;;;;5076586;28;19916;-68
2022/08/29 13:20:44;;;;;;;;;;;23.70;50.70;;;;;;5082281;28;19932;-68
2022/08/29 13:23:15;;;;;;;;;;;23.50;52.40;;;;;;5069101;28;19913;-67
2022/08/29 13:26:01;;;;;;;;;;;23.50;52.10;;;;;;5077648;28;19913;-68
2022/08/29 13:28:26;;;;;;;;;;;23.50;51.40;;;;;;5071194;28;19923;-68
2022/08/29 13:31:25;;;;;;;;;;;23.30;53.10;;;;;;5069662;28;19944;-68
2022/08/29 13:33:52;;;;;;;;;;;23.30;54.30;;;;;;5045588;28;19972;-67
2022/08/29 13:36:30;;;;;;;;;;;23.50;54.20;;;;;;5071899;28;20076;-68
2022/08/29 13:39:25;;;;;;;;;;;23.70;55.60;;;;;;5069767;28;19951;-68
2022/08/29 13:42:00;;;;;;;;;;;23.80;53.10;;;;;;5075372;28;19998;-68
2022/08/29 13:44:36;;;;;;;;;;;23.90;52.00;;;;;;5098263;28;19913;-67
2022/08/29 13:47:10;;;;;;;;;;;23.60;52.40;;;;;;5068355;28;19963;-68
2022/08/29 13:49:36;;;;;;;;;;;23.40;52.50;;;;;;5087557;28;20003;-68
2022/08/29 13:52:02;;;;;;;;;;;23.30;51.80;;;;;;5071958;28;19913;-67
2022/08/29 13:54:28;;;;;;;;;;;23.20;52.60;;;;;;5073465;28;19996;-67
2022/08/29 13:56:55;;;;;;;;;;;23.20;52.80;;;;;;5083943;28;19912;-68
2022/08/29 13:59:24;;;;;;;;;;;23.20;52.70;;;;;;5071025;28;19988;-68
2022/08/29 14:01:50;;;;;;;;;;;23.20;53.10;;;;;;5078073;28;20367;-67
2022/08/29 14:04:16;;;;;;;;;;;23.40;52.80;;;;;;5072489;28;19939;-68
2022/08/29 14:06:41;;;;;;;;;;;23.40;54.00;;;;;;5081798;28;19965;-67
2022/08/29 14:09:07;;;;;;;;;;;23.50;52.70;;;;;;5070110;28;19901;-67
2022/08/29 14:11:33;;;;;;;;;;;23.60;52.20;;;;;;5077109;28;20314;-68
2022/08/29 14:13:59;;;;;;;;;;;23.60;52.60;;;;;;5070893;28;19924;-67
2022/08/29 14:16:24;;;;;;;;;;;23.70;51.00;;;;;;5079423;28;19913;-68
2022/08/29 14:18:50;;;;;;;;;;;23.70;51.10;;;;;;5099921;28;19913;-68
2022/08/29 14:21:16;;;;;;;;;;;23.80;51.70;;;;;;5072563;28;19936;-68
2022/08/29 14:23:42;;;;;;;;;;;24.20;52.80;;;;;;5071520;28;19908;-69
2022/08/29 14:26:08;;;;;;;;;;;24.40;50.60;;;;;;5069528;28;19999;-68